McFaddin, Texas
Current Conditions -  °F | °C
As of 11:30 AM on Thursday 30 Oct 2014 (Local Time) from KPKV Reporting Station
Scattered Clouds Scattered Clouds  
Wind Chill: 74°   Ceiling: Unl
Heat Index: 74°   Visibility: 10mi
Dew Point: 66°   Wind: 9mph
Humidity: 76%   Direction: 40°NE
Pressure: 30.12"   Gusts: NA
Location:  28.55°N, 97.01°W
Report Text: KPKV 301630Z AUTO 04008KT 10SM SCT022 24/19 A3012 RMK AO2 T02350190
Loading
Personal Weather Stations






























Interactive Weather Map
Tropical Storm Tracking
New forecast layout! Learn more

10-Day Weather Forecast

Advertisements
Track Severe Weather on mobile